Rend City, Illinois
Current Conditions -  °F | °C
As of 9:54 AM on Thursday 27 Nov 2014 (Local Time) from KMWA Reporting Station
Overcast Overcast  
Wind Chill: 20°   Ceiling: 1800
Heat Index: 30°   Visibility: 12mi
Dew Point: 25°   Wind: 14mph
Humidity: 80%   Direction: 320°NW
Pressure: 30.51"   Gusts: NA
Location:  38.0175°N, 88.9351°W
Report Text: KMWA 271554Z 32012KT 12SM OVC018 M01/M04 A3051
Loading
Personal Weather Stations






























Interactive Weather Map New forecast layout! Learn more

10-Day Weather Forecast

Advertisements
Track Severe Weather on mobile